Погода Жигулина 2 недели

Витебская область, Белоруссия

23 мая-04 июня
  • 23мая
    Сегодня
    +12°
    +24°
    Практически безоблачно
    ВремяПогодаТемператураВлажностьДавлениеВетер, м/сВероятность осадков
    00:00Облачно с прояснениями+14°C93 %756 мм2.5 м/с7 %
    03:00Ясно и безоблачно+14°C93 %756 мм3.0 м/с2 %
    06:00Ясно и безоблачно+13°C92 %757 мм3.9 м/с2 %
    09:00Ясно и безоблачно+18°C76 %758 мм4.4 м/с2 %
    12:00Ясно и безоблачно+23°C53 %758 мм5.2 м/с2 %
    15:00Практически безоблачно+24°C49 %758 мм5.7 м/с3 %
    18:00Небольшая облачность+23°C55 %758 мм4.4 м/с15 %
    21:00Практически безоблачно+19°C62 %758 мм3.1 м/с2 %
  • 24мая
    Пятница
    +10°
    +24°
    Ясно и безоблачно
    ВремяПогодаТемператураВлажностьДавлениеВетер, м/сВероятность осадков
    00:00Облачно с прояснениями+15°C58 %759 мм4.6 м/с2 %
    03:00Практически безоблачно+13°C61 %760 мм4.4 м/с2 %
    06:00Практически безоблачно+12°C66 %761 мм4.5 м/с2 %
    09:00Ясно и безоблачно+17°C59 %762 мм4.6 м/с2 %
    12:00Ясно и безоблачно+21°C50 %762 мм4.4 м/с2 %
    15:00Ясно и безоблачно+23°C45 %761 мм4.3 м/с2 %
    18:00Ясно и безоблачно+23°C47 %760 мм4.1 м/с1 %
    21:00Ясно и безоблачно+18°C60 %760 мм2.9 м/с2 %
  • 25мая
    Суббота
    +12°
    +25°
    Облачно с прояснениями
    ВремяПогодаТемператураВлажностьДавлениеВетер, м/сВероятность осадков
    00:00Ясно и безоблачно+14°C67 %761 мм3.5 м/с2 %
    03:00Ясно и безоблачно+12°C74 %760 мм2.8 м/с2 %
    06:00Облачно с прояснениями+11°C78 %760 мм3.3 м/с2 %
    09:00Небольшая облачность+17°C67 %760 мм3.1 м/с3 %
    12:00Облачно с прояснениями+23°C50 %760 мм3.0 м/с3 %
    15:00Облачно с прояснениями+24°C42 %759 мм3.1 м/с8 %
    18:00Небольшая облачность+24°C43 %758 мм2.7 м/с14 %
    21:00Ясно и безоблачно+19°C69 %758 мм2.2 м/с10 %
  • 26мая
    Воскресенье
    +10°
    +25°
    Ясно и безоблачно
    ВремяПогодаТемператураВлажностьДавлениеВетер, м/сВероятность осадков
    00:00Практически безоблачно+13°C83 %758 мм2.2 м/с3 %
    03:00Небольшая облачность+12°C82 %758 мм2.3 м/с3 %
    06:00Практически безоблачно+12°C76 %758 мм1.6 м/с4 %
    09:00Ясно и безоблачно+18°C58 %758 мм1.4 м/с6 %
    12:00Ясно и безоблачно+23°C42 %759 мм2.2 м/с5 %
    15:00Ясно и безоблачно+25°C40 %758 мм2.7 м/с9 %
    18:00Практически безоблачно+25°C40 %758 мм2.2 м/с20 %
    21:00Небольшая облачность+20°C61 %758 мм2.1 м/с6 %
Мы используем cookies
Соглашаюсь